createdAt,value
2023-06-14T00:02:28.068Z,76.00
2023-06-14T00:05:18.621Z,76.63
2023-06-14T00:08:09.410Z,76.85
2023-06-14T00:10:57.975Z,77.05
2023-06-14T00:13:47.135Z,77.24
2023-06-14T00:16:36.852Z,77.60
2023-06-14T00:19:29.009Z,77.79
2023-06-14T00:22:19.960Z,79.04
2023-06-14T00:25:28.127Z,79.43
2023-06-14T00:28:17.888Z,79.97
2023-06-14T00:31:06.937Z,80.36
2023-06-14T00:33:55.529Z,80.59
2023-06-14T00:36:45.150Z,81.28
2023-06-14T00:39:35.685Z,81.33
2023-06-14T00:42:28.848Z,81.99
2023-06-14T00:45:18.974Z,82.23
2023-06-14T00:48:11.585Z,82.05
2023-06-14T00:51:03.412Z,82.76
2023-06-14T00:53:54.207Z,83.35
2023-06-14T00:56:46.617Z,83.84
2023-06-14T00:59:40.406Z,84.87
2023-06-14T01:02:29.878Z,85.12
2023-06-14T01:05:20.263Z,85.75
2023-06-14T01:08:25.346Z,86.06
2023-06-14T01:11:21.455Z,86.82
2023-06-14T01:14:15.813Z,87.17
2023-06-14T01:17:06.996Z,87.98
2023-06-14T01:19:59.272Z,88.77
2023-06-14T01:22:55.717Z,88.89
2023-06-14T01:25:45.737Z,89.26
2023-06-14T01:28:38.429Z,89.38
2023-06-14T01:31:31.790Z,89.68
2023-06-14T01:34:21.851Z,90.42
2023-06-14T01:37:13.203Z,90.20
2023-06-14T01:40:06.454Z,91.00
2023-06-14T01:42:56.352Z,91.40
2023-06-14T01:45:50.162Z,92.12
2023-06-14T01:48:39.941Z,92.61
2023-06-14T01:51:34.583Z,93.12
2023-06-14T01:54:27.101Z,93.67
2023-06-14T01:57:17.666Z,93.90
2023-06-14T02:00:12.389Z,94.18
2023-06-14T02:03:02.597Z,94.63
2023-06-14T02:05:50.573Z,95.05
2023-06-14T02:08:45.317Z,94.40
2023-06-14T02:11:34.025Z,92.75
2023-06-14T02:14:30.429Z,92.41
2023-06-14T02:17:18.639Z,91.84
2023-06-14T02:20:11.091Z,91.79
2023-06-14T02:23:04.002Z,92.55
2023-06-14T02:25:52.495Z,92.72
2023-06-14T02:28:40.943Z,93.21
2023-06-14T02:31:31.614Z,93.88
2023-06-14T02:34:21.477Z,94.67
2023-06-14T02:37:12.204Z,95.63
2023-06-14T02:40:02.174Z,96.17
2023-06-14T02:42:51.069Z,97.09
2023-06-14T02:45:40.026Z,96.83
2023-06-14T02:48:30.673Z,96.30
2023-06-14T02:51:19.389Z,96.26
2023-06-14T02:54:09.642Z,96.20
2023-06-14T02:57:00.367Z,96.94
2023-06-14T02:59:48.627Z,97.60
2023-06-14T03:02:43.888Z,98.12
2023-06-14T03:05:35.564Z,97.56
2023-06-14T03:08:28.603Z,97.65
2023-06-14T03:11:19.823Z,98.41
2023-06-14T03:14:10.123Z,99.48
2023-06-14T03:16:59.307Z,100.00
2023-06-14T03:19:47.977Z,100.00
2023-06-14T03:22:40.995Z,100.00
2023-06-14T03:25:31.459Z,100.00
2023-06-14T03:28:21.162Z,100.00
2023-06-14T03:31:10.248Z,100.00
2023-06-14T03:34:03.266Z,100.00
2023-06-14T03:36:53.268Z,100.00
2023-06-14T03:39:47.757Z,100.00
2023-06-14T03:42:39.060Z,100.00
2023-06-14T03:45:27.524Z,100.00
2023-06-14T03:48:16.470Z,100.00
2023-06-14T03:51:06.785Z,100.00
2023-06-14T03:54:30.216Z,100.00
2023-06-14T03:57:17.978Z,100.00
2023-06-14T04:00:08.966Z,100.00
2023-06-14T04:03:02.773Z,100.00
2023-06-14T04:05:52.826Z,100.00
2023-06-14T04:08:44.409Z,100.00
2023-06-14T04:11:36.616Z,100.00
2023-06-14T04:14:34.360Z,100.00
2023-06-14T04:17:30.270Z,100.00
2023-06-14T04:20:29.896Z,99.97
2023-06-14T04:23:25.466Z,100.00
2023-06-14T04:26:15.045Z,100.00
2023-06-14T04:29:03.807Z,100.00
2023-06-14T04:31:57.060Z,100.00
2023-06-14T04:34:46.012Z,98.50
2023-06-14T04:37:35.255Z,97.13
2023-06-14T04:40:26.096Z,97.28
2023-06-14T04:43:18.603Z,100.00
2023-06-14T04:46:10.970Z,98.24
2023-06-14T04:49:19.152Z,95.57
2023-06-14T04:52:12.119Z,97.59
2023-06-14T04:55:33.434Z,96.70
2023-06-14T04:58:21.609Z,98.81
2023-06-14T05:01:14.755Z,99.10
2023-06-14T05:04:05.526Z,95.70
2023-06-14T05:06:57.868Z,98.38
2023-06-14T05:09:48.065Z,96.41
2023-06-14T05:12:36.948Z,95.22
2023-06-14T05:15:30.304Z,94.58
2023-06-14T05:18:21.403Z,97.11
2023-06-14T05:21:10.562Z,93.78
2023-06-14T05:24:01.713Z,97.65
2023-06-14T05:33:01.332Z,97.46
2023-06-14T05:35:52.043Z,98.82
2023-06-14T05:38:41.189Z,100.00
2023-06-14T05:41:48.826Z,99.58
2023-06-14T05:44:39.083Z,100.00
2023-06-14T05:47:29.641Z,92.11
2023-06-14T05:50:18.464Z,97.97
2023-06-14T05:53:09.066Z,94.56
2023-06-14T05:55:58.793Z,98.60
2023-06-14T05:58:49.632Z,95.69
2023-06-14T06:01:45.948Z,94.57
2023-06-14T06:04:39.306Z,98.03
2023-06-14T06:07:38.127Z,97.58
2023-06-14T06:10:29.186Z,96.47
2023-06-14T06:13:17.994Z,96.86
2023-06-14T06:16:08.398Z,96.05
2023-06-14T06:19:00.101Z,100.00
2023-06-14T06:21:49.690Z,97.84
2023-06-14T06:24:38.454Z,96.71
2023-06-14T06:27:27.861Z,95.34
2023-06-14T06:30:26.162Z,92.84
2023-06-14T06:33:26.042Z,90.66
2023-06-14T06:36:16.908Z,92.64
2023-06-14T06:39:11.362Z,89.13
2023-06-14T06:42:00.538Z,87.53
2023-06-14T06:44:50.301Z,85.98
2023-06-14T06:47:39.051Z,83.47
2023-06-14T06:50:36.716Z,81.06
2023-06-14T06:53:39.197Z,80.12
2023-06-14T06:56:30.702Z,79.10
2023-06-14T06:59:22.320Z,77.64
2023-06-14T07:02:11.928Z,77.34
2023-06-14T07:05:07.696Z,73.92
2023-06-14T07:08:08.022Z,75.81
2023-06-14T07:10:57.226Z,75.29
2023-06-14T07:13:49.751Z,73.97
2023-06-14T07:16:41.262Z,70.03
2023-06-14T07:19:33.737Z,69.71
2023-06-14T07:22:24.575Z,69.23
2023-06-14T07:25:16.930Z,67.80
2023-06-14T07:28:13.306Z,66.81
2023-06-14T07:31:09.579Z,66.12
2023-06-14T07:33:57.878Z,65.78
2023-06-14T07:36:50.451Z,64.47
2023-06-14T07:39:38.961Z,64.36
2023-06-14T07:42:29.126Z,66.56
2023-06-14T07:45:21.150Z,64.64
2023-06-14T07:48:10.491Z,64.06
2023-06-14T07:50:58.670Z,61.03
2023-06-14T07:53:47.774Z,62.31
2023-06-14T07:56:38.216Z,60.37
2023-06-14T07:59:30.143Z,56.84
2023-06-14T08:02:19.454Z,60.89
2023-06-14T08:05:14.134Z,58.31
2023-06-14T08:08:04.424Z,59.38
2023-06-14T08:10:55.403Z,56.85
2023-06-14T08:13:46.964Z,55.34
2023-06-14T08:16:37.909Z,54.35
2023-06-14T08:19:30.172Z,53.60
2023-06-14T08:22:22.137Z,52.47
2023-06-14T08:25:16.722Z,52.03
2023-06-14T08:28:07.610Z,51.03
2023-06-14T08:34:05.533Z,52.37
2023-06-14T08:36:57.451Z,52.85
2023-06-14T08:39:52.443Z,54.31
2023-06-14T08:42:49.430Z,54.37
2023-06-14T08:45:53.492Z,49.75
2023-06-14T08:48:43.559Z,50.34
2023-06-14T08:51:46.019Z,53.16
2023-06-14T08:54:47.350Z,48.19
2023-06-14T08:57:40.805Z,47.51
2023-06-14T09:00:49.940Z,51.78
2023-06-14T09:03:47.279Z,48.62
2023-06-14T09:06:55.976Z,53.06
2023-06-14T09:10:07.137Z,49.61
2023-06-14T09:12:57.241Z,50.25
2023-06-14T09:15:48.459Z,51.53
2023-06-14T09:19:00.204Z,51.85
2023-06-14T09:22:01.281Z,50.07
2023-06-14T09:24:51.082Z,50.63
2023-06-14T09:27:41.000Z,49.56
2023-06-14T09:30:33.003Z,45.56
2023-06-14T09:33:21.802Z,48.04
2023-06-14T09:36:21.733Z,47.62
2023-06-14T09:39:15.081Z,46.98
2023-06-14T09:42:04.531Z,48.80
2023-06-14T09:44:58.743Z,48.82
2023-06-14T09:48:04.286Z,48.28
2023-06-14T09:51:11.065Z,48.37
2023-06-14T09:54:05.656Z,47.66
2023-06-14T09:56:58.070Z,46.49
2023-06-14T09:59:58.142Z,46.26
2023-06-14T10:03:01.794Z,46.82
2023-06-14T10:06:04.654Z,47.01
2023-06-14T10:08:57.219Z,47.79
2023-06-14T10:11:50.621Z,48.52
2023-06-14T10:14:50.806Z,49.79
2023-06-14T10:17:56.964Z,47.54
2023-06-14T10:21:08.860Z,49.66
2023-06-14T10:24:12.875Z,49.09
2023-06-14T10:27:15.262Z,50.01
2023-06-14T10:30:16.232Z,49.26
2023-06-14T10:33:11.411Z,47.63
2023-06-14T10:36:43.267Z,47.80
2023-06-14T10:39:33.227Z,48.23
2023-06-14T10:42:23.993Z,47.83
2023-06-14T10:45:18.542Z,47.12
2023-06-14T10:48:09.019Z,46.79
2023-06-14T10:54:14.698Z,47.16
2023-06-14T10:57:02.807Z,46.81
2023-06-14T10:59:51.305Z,45.80
2023-06-14T11:03:31.707Z,45.12
2023-06-14T11:06:30.166Z,44.88
2023-06-14T11:10:15.337Z,44.04
2023-06-14T11:13:04.157Z,44.36
2023-06-14T11:16:08.957Z,43.55
2023-06-14T11:19:03.099Z,45.41
2023-06-14T11:21:52.477Z,44.49
2023-06-14T11:24:42.159Z,43.22
2023-06-14T11:27:32.268Z,43.83
2023-06-14T11:30:23.274Z,43.65
2023-06-14T11:33:14.160Z,44.63
2023-06-14T11:36:13.502Z,43.27
2023-06-14T11:39:17.915Z,44.27
2023-06-14T11:42:09.645Z,45.17
2023-06-14T11:45:07.893Z,44.51
2023-06-14T11:48:03.730Z,42.74
2023-06-14T11:50:54.201Z,44.09
2023-06-14T11:53:47.771Z,42.25
2023-06-14T11:56:52.279Z,45.72
2023-06-14T11:59:42.187Z,44.49
2023-06-14T12:02:35.723Z,44.64
2023-06-14T12:05:25.269Z,42.72
2023-06-14T12:08:23.595Z,43.09
2023-06-14T12:11:24.905Z,43.78
2023-06-14T12:14:14.163Z,42.76
2023-06-14T12:17:13.787Z,42.78
2023-06-14T12:20:15.689Z,43.33
2023-06-14T12:23:07.977Z,41.60
2023-06-14T12:26:06.186Z,42.72
2023-06-14T12:28:57.240Z,42.87
2023-06-14T12:31:47.545Z,41.93
2023-06-14T12:37:55.798Z,42.04
2023-06-14T12:40:44.997Z,41.83
2023-06-14T12:43:45.087Z,40.55
2023-06-14T12:46:37.487Z,39.23
2023-06-14T12:49:28.815Z,38.42
2023-06-14T12:52:20.756Z,41.49
2023-06-14T12:55:13.425Z,35.81
2023-06-14T12:58:02.372Z,42.44
2023-06-14T13:00:51.121Z,42.31
2023-06-14T13:03:43.434Z,42.19
2023-06-14T13:09:36.999Z,40.53
2023-06-14T13:12:26.766Z,40.54
2023-06-14T13:15:15.649Z,40.50
2023-06-14T13:18:04.483Z,39.92
2023-06-14T13:20:54.697Z,37.57
2023-06-14T13:23:50.978Z,40.56
2023-06-14T13:26:42.952Z,40.99
2023-06-14T13:29:32.511Z,40.53
2023-06-14T13:32:24.649Z,41.22
2023-06-14T13:35:13.657Z,41.18
2023-06-14T13:38:18.611Z,41.00
2023-06-14T13:41:09.820Z,40.43
2023-06-14T13:43:58.728Z,40.52
2023-06-14T13:46:50.767Z,40.54
2023-06-14T13:49:41.406Z,39.67
2023-06-14T13:52:32.377Z,38.21
2023-06-14T13:55:25.563Z,38.28
2023-06-14T13:58:42.517Z,39.37
2023-06-14T14:01:30.934Z,39.78
2023-06-14T14:04:21.368Z,40.46
2023-06-14T14:07:14.505Z,39.38
2023-06-14T14:10:08.213Z,40.18
2023-06-14T14:12:59.213Z,38.18
2023-06-14T14:15:48.721Z,39.13
2023-06-14T14:18:37.436Z,41.88
2023-06-14T14:21:26.141Z,39.16
2023-06-14T14:24:14.492Z,41.82
2023-06-14T14:27:06.857Z,42.34
2023-06-14T14:29:57.158Z,42.13
2023-06-14T14:32:49.442Z,42.66
2023-06-14T14:35:41.185Z,36.78
2023-06-14T14:38:30.085Z,44.42
2023-06-14T14:41:18.722Z,39.96
2023-06-14T14:44:18.306Z,40.04
2023-06-14T14:47:09.735Z,35.98
2023-06-14T14:49:59.459Z,39.94
2023-06-14T14:52:49.398Z,40.24
2023-06-14T14:58:41.194Z,39.37
2023-06-14T15:01:29.876Z,39.83
2023-06-14T15:04:23.500Z,39.08
2023-06-14T15:07:12.058Z,39.00
2023-06-14T15:10:03.259Z,37.53
2023-06-14T15:12:53.320Z,38.06
2023-06-14T15:15:43.736Z,37.76
2023-06-14T15:18:36.969Z,39.21
2023-06-14T15:21:32.417Z,38.38
2023-06-14T15:24:38.005Z,39.79
2023-06-14T15:27:33.301Z,40.04
2023-06-14T15:30:36.500Z,38.98
2023-06-14T15:33:24.931Z,38.76
2023-06-14T15:36:16.377Z,37.08
2023-06-14T15:39:06.572Z,34.97
2023-06-14T15:41:55.002Z,37.07
2023-06-14T15:44:44.250Z,37.93
2023-06-14T15:47:46.831Z,37.50
2023-06-14T15:50:38.702Z,36.97
2023-06-14T15:53:31.867Z,35.91
2023-06-14T15:56:22.228Z,37.03
2023-06-14T15:59:13.273Z,36.70
2023-06-14T16:02:04.273Z,36.51
2023-06-14T16:04:55.911Z,35.17
2023-06-14T16:07:47.668Z,35.38
2023-06-14T16:10:36.182Z,35.16
2023-06-14T16:13:27.294Z,34.71
2023-06-14T16:16:16.698Z,34.32
2023-06-14T16:19:22.315Z,34.29
2023-06-14T16:22:14.516Z,33.07
2023-06-14T16:25:07.952Z,33.92
2023-06-14T16:31:10.588Z,33.59
2023-06-14T16:34:14.507Z,31.56
2023-06-14T16:37:07.168Z,33.28
2023-06-14T16:39:57.471Z,33.56
2023-06-14T16:42:53.544Z,33.54
2023-06-14T16:45:42.678Z,34.62
2023-06-14T16:48:35.521Z,34.76
2023-06-14T16:51:25.050Z,33.88
2023-06-14T16:54:13.853Z,34.09
2023-06-14T16:57:02.960Z,33.96
2023-06-14T16:59:52.150Z,33.58
2023-06-14T17:02:41.009Z,33.65
2023-06-14T17:05:32.855Z,33.64
2023-06-14T17:08:25.455Z,34.33
2023-06-14T17:11:16.371Z,33.83
2023-06-14T17:14:07.540Z,34.26
2023-06-14T17:17:01.690Z,34.38
2023-06-14T17:19:53.716Z,33.90
2023-06-14T17:22:44.918Z,33.66
2023-06-14T17:25:34.444Z,34.58
2023-06-14T17:28:24.607Z,35.30
2023-06-14T17:31:18.320Z,35.54
2023-06-14T17:34:15.040Z,36.14
2023-06-14T17:37:08.428Z,35.93
2023-06-14T17:40:02.301Z,35.66
2023-06-14T17:42:53.526Z,37.46
2023-06-14T17:45:48.955Z,37.16
2023-06-14T17:48:41.617Z,37.50
2023-06-14T17:51:40.405Z,36.81
2023-06-14T17:54:29.508Z,36.76
2023-06-14T17:57:20.954Z,37.59
2023-06-14T18:00:13.241Z,37.44
2023-06-14T18:03:11.807Z,37.18
2023-06-14T18:06:06.760Z,38.34
2023-06-14T18:08:57.380Z,38.57
2023-06-14T18:11:48.366Z,39.19
2023-06-14T18:14:41.842Z,39.61
2023-06-14T18:17:34.191Z,40.03
2023-06-14T18:20:23.550Z,40.57
2023-06-14T18:23:13.964Z,40.84
2023-06-14T18:26:05.323Z,41.51
2023-06-14T18:29:02.807Z,42.24
2023-06-14T18:31:52.905Z,42.73
2023-06-14T18:34:41.997Z,42.56
2023-06-14T18:37:32.236Z,42.95
2023-06-14T18:40:25.147Z,43.64
2023-06-14T18:49:25.655Z,44.21
2023-06-14T18:52:15.868Z,44.04
2023-06-14T18:55:26.040Z,45.01
2023-06-14T18:58:30.227Z,45.29
2023-06-14T19:04:44.217Z,46.27
2023-06-14T19:08:14.921Z,47.31
2023-06-14T19:11:04.865Z,47.58
2023-06-14T19:14:00.761Z,48.20
2023-06-14T19:17:07.392Z,48.30
2023-06-14T19:19:59.544Z,48.99
2023-06-14T19:35:55.183Z,51.14
2023-06-14T19:38:44.489Z,51.11
2023-06-14T19:44:45.648Z,51.98
2023-06-14T19:47:34.303Z,52.20
2023-06-14T19:53:56.255Z,53.04
2023-06-14T19:56:56.900Z,52.79
2023-06-14T19:59:46.060Z,53.28
2023-06-14T20:02:43.382Z,53.94
2023-06-14T20:05:35.154Z,53.79
2023-06-14T20:08:25.578Z,54.65
2023-06-14T20:11:33.235Z,54.94
2023-06-14T20:14:26.112Z,54.98
2023-06-14T20:17:34.104Z,54.99
2023-06-14T20:20:29.154Z,54.94
2023-06-14T20:23:20.315Z,55.70
2023-06-14T20:26:11.829Z,55.81
2023-06-14T20:29:02.347Z,56.33
2023-06-14T20:31:52.366Z,56.73
2023-06-14T20:34:42.378Z,56.95
2023-06-14T20:37:31.372Z,57.20
2023-06-14T20:40:24.393Z,57.94
2023-06-14T20:43:13.709Z,58.50
2023-06-14T20:46:08.509Z,58.57
2023-06-14T20:48:56.885Z,59.29
2023-06-14T20:51:53.225Z,59.70
2023-06-14T20:54:45.956Z,60.03
2023-06-14T20:57:34.714Z,60.52
2023-06-14T21:00:25.030Z,61.15
2023-06-14T21:03:16.485Z,61.16
2023-06-14T21:06:08.224Z,61.53
2023-06-14T21:08:57.598Z,61.49
2023-06-14T21:11:45.778Z,61.90
2023-06-14T21:14:37.157Z,62.06
2023-06-14T21:17:28.647Z,62.56
2023-06-14T21:20:20.856Z,63.06
2023-06-14T21:23:11.000Z,63.61
2023-06-14T21:25:59.842Z,63.89
2023-06-14T21:28:48.712Z,64.38
2023-06-14T21:31:37.359Z,64.76
2023-06-14T21:34:26.926Z,65.28
2023-06-14T21:37:16.783Z,65.59
2023-06-14T21:40:05.296Z,66.28
2023-06-14T21:42:54.251Z,66.28
2023-06-14T21:45:43.064Z,66.49
2023-06-14T21:48:31.908Z,66.67
2023-06-14T21:51:21.474Z,66.60
2023-06-14T21:57:22.494Z,67.21
2023-06-14T22:00:15.004Z,67.68
2023-06-14T22:03:04.536Z,67.81
2023-06-14T22:05:52.991Z,68.45
2023-06-14T22:08:42.722Z,68.99
2023-06-14T22:11:35.346Z,69.62
2023-06-14T22:14:25.789Z,69.98
2023-06-14T22:17:14.667Z,70.28
2023-06-14T22:20:06.805Z,70.63
2023-06-14T22:22:56.788Z,71.18
2023-06-14T22:25:46.230Z,71.40
2023-06-14T22:28:46.796Z,71.45
2023-06-14T22:31:38.546Z,72.35
2023-06-14T22:34:27.180Z,72.69
2023-06-14T22:37:19.439Z,73.08
2023-06-14T22:40:12.685Z,73.69
2023-06-14T22:43:01.570Z,74.15
2023-06-14T22:45:52.754Z,74.48
2023-06-14T22:48:47.007Z,75.32
2023-06-14T22:51:39.163Z,75.47
2023-06-14T22:54:31.275Z,75.93
2023-06-14T22:57:21.540Z,76.43
2023-06-14T23:00:12.949Z,77.08
2023-06-14T23:03:05.157Z,77.64
2023-06-14T23:05:54.320Z,78.52
2023-06-14T23:08:45.626Z,79.36
2023-06-14T23:11:34.793Z,79.73
2023-06-14T23:14:25.928Z,80.33
2023-06-14T23:17:14.615Z,80.72
2023-06-14T23:20:09.371Z,81.46
2023-06-14T23:22:58.672Z,81.99
2023-06-14T23:25:49.610Z,82.53
2023-06-14T23:28:38.606Z,83.15
2023-06-14T23:31:27.627Z,83.65
2023-06-14T23:34:16.223Z,84.10
2023-06-14T23:37:09.823Z,84.41
2023-06-14T23:39:57.792Z,85.50
2023-06-14T23:42:46.602Z,85.85
2023-06-14T23:45:35.743Z,86.04
2023-06-14T23:48:27.425Z,86.59
2023-06-14T23:51:16.775Z,87.25
2023-06-14T23:54:10.960Z,87.49
2023-06-14T23:57:01.760Z,87.97
2023-06-14T23:59:51.500Z,88.52
